EW7200 Weather Reports


Display with metric or nautical units.
time (UTC)temp
F
wind
direction
speed
MPH
gust
MPH
rain 1hr
in
rain 24hr
in
rain mn
in
humidity
%
barometer
mb
20200229140042 43 360 0.0 8.0 0.00 0.00 0.00 76 1021.5
20200229134556 41 360 1.0 11.0 0.00 0.00 0.00 79 1021.4
20200229133012 40 360 0.0 3.0 0.00 0.00 0.00 82 1021.1
20200229131518 37 360 0.0 1.0 0.00 0.00 0.00 89 1021.0
20200229130005 34 360 0.0 0.0 0.00 0.00 0.00 95 1020.9
20200229124520 30 360 0.0 0.0 0.00 0.00 0.00 94 1020.8
20200229123002 29 160 0.0 0.0 0.00 0.00 0.00 94 1020.8
20200229121728 28 192 0.0 0.0 0.00 0.00 0.00 94 1020.8
20200229120158 27 192 0.0 0.0 0.00 0.00 0.00 94 1020.8
20200229114745 27 192 0.0 0.0 0.00 0.00 0.00 94 1020.7
20200229113246 27 192 0.0 0.0 0.00 0.00 0.00 94 1020.5
20200229111919 27 192 0.0 0.0 0.00 0.00 0.00 93 1020.5
20200229110231 28 192 0.0 0.0 0.00 0.00 0.00 93 1020.4
20200229104657 28 192 0.0 0.0 0.00 0.00 0.00 93 1020.3
20200229103147 28 192 0.0 0.0 0.00 0.00 0.00 93 1020.1
20200229101705 28 192 0.0 0.0 0.00 0.00 0.00 93 1020.1
20200229100120 28 192 0.0 0.0 0.00 0.00 0.00 93 1020.0
20200229094613 28 192 0.0 0.0 0.00 0.00 0.00 93 1019.9
20200229093143 28 192 0.0 0.0 0.00 0.00 0.00 93 1020.0
20200229091620 28 192 0.0 0.0 0.00 0.00 0.00 93 1020.3
20200229090120 28 192 0.0 0.0 0.00 0.00 0.00 92 1020.5
20200229084609 28 292 0.0 0.0 0.00 0.00 0.00 92 1020.3
20200229083224 28 292 0.0 0.0 0.00 0.00 0.00 92 1020.4
20200229081659 29 292 0.0 0.0 0.00 0.00 0.00 92 1020.4
20200229080154 29 292 0.0 0.0 0.00 0.00 0.00 91 1020.5
20200229074625 29 292 0.0 0.0 0.00 0.00 0.00 91 1020.6
20200229073108 30 292 0.0 0.0 0.00 0.00 0.00 91 1020.8
20200229071557 30 292 0.0 0.0 0.00 0.00 0.00 90 1020.8
20200229070040 31 292 0.0 0.0 0.00 0.00 0.00 89 1020.8
20200229064706 31 292 0.0 0.0 0.00 0.00 0.00 89 1020.9
20200229063100 32 292 0.0 0.0 0.00 0.00 0.00 88 1020.8
20200229061533 32 360 0.0 0.0 0.00 0.00 0.00 87 1020.8
20200229060056 33 360 0.0 0.0 0.00 0.00 0.00 86 1020.9
20200229054521 34 360 0.0 0.0 0.00 0.00 0.00 85 1021.0
20200229053019 35 360 0.0 0.0 0.00 0.00 0.00 83 1021.2
20200229051527 36 360 0.0 0.0 0.00 0.00 0.00 81 1021.1
20200229050050 38 360 0.0 0.0 0.00 0.00 0.00 78 1021.2
20200229044525 40 360 0.0 0.0 0.00 0.00 0.00 75 1021.3
20200229043009 41 360 0.0 0.0 0.00 0.00 0.00 74 1021.3
20200229041543 41 360 0.0 0.0 0.00 0.00 0.00 73 1021.3
20200229040015 41 360 0.0 3.0 0.00 0.00 0.00 77 1021.2
20200229034519 37 360 0.0 0.0 0.00 0.00 0.00 84 1021.2
20200229033036 37 360 0.0 0.0 0.00 0.00 0.00 82 1021.1
20200229031521 38 360 0.0 0.0 0.00 0.00 0.00 79 1020.8
20200229030011 39 360 0.0 0.0 0.00 0.00 0.00 78 1020.7
20200229024505 40 360 0.0 0.0 0.00 0.00 0.00 75 1020.6
20200229023004 41 360 0.0 0.0 0.00 0.00 0.00 73 1020.4
20200229021508 42 265 0.0 0.0 0.00 0.00 0.00 71 1020.4
20200229020007 44 360 0.0 0.0 0.00 0.00 0.00 68 1020.3
20200229014504 45 263 0.0 0.0 0.00 0.00 0.00 65 1020.1
20200229013011 47 263 0.0 0.0 0.00 0.00 0.00 61 1019.9
20200229011502 48 275 0.0 0.0 0.00 0.00 0.00 60 1019.7
20200229010113 48 290 0.0 1.0 0.00 0.00 0.00 58 1019.7
20200229010001 48 288 0.0 0.0 0.00 0.00 0.00 58 1019.7
20200229004729 49 360 0.0 0.0 0.00 0.00 0.00 57 1019.2
20200229003105 49 267 0.0 3.0 0.00 0.00 0.00 55 1019.3
20200229001643 50 360 0.0 7.0 0.00 0.00 0.00 53 1019.0
20200229000125 50 360 0.0 9.0 0.00 0.00 0.00 52 1019.0
20200228234651 51 360 0.0 9.0 0.00 0.00 0.00 50 1018.8
20200228233156 51 326 0.0 9.0 0.00 0.00 0.00 50 1018.4
20200228231705 51 232 0.0 5.0 0.00 0.00 0.00 49 1018.5
20200228230124 52 325 0.0 10.0 0.00 0.00 0.00 48 1018.1
20200228224654 52 273 0.0 9.0 0.00 0.00 0.00 46 1018.1
20200228223409 52 275 4.0 13.0 0.00 0.00 0.00 45 1018.2
20200228221805 53 227 0.0 10.0 0.00 0.00 0.00 44 1018.2
20200228220200 53 286 3.0 18.0 0.00 0.00 0.00 42 1018.0
20200228214631 54 360 1.0 13.0 0.00 0.00 0.00 40 1017.9
20200228213230 54 280 0.0 19.0 0.00 0.00 0.00 39 1017.8
20200228211629 55 360 1.0 16.0 0.00 0.00 0.00 38 1017.8
20200228210127 56 275 1.0 13.0 0.00 0.00 0.00 36 1017.8
20200228204637 56 360 1.0 15.0 0.00 0.00 0.00 36 1017.9
20200228203138 56 111 1.0 13.0 0.00 0.00 0.00 36 1017.8
20200228201805 56 288 0.0 15.0 0.00 0.00 0.00 36 1017.9
20200228200110 55 360 2.0 17.0 0.00 0.00 0.00 38 1018.3
20200228194624 55 305 4.0 26.0 0.00 0.00 0.00 37 1018.4
20200228193042 55 246 2.0 16.0 0.00 0.00 0.00 36 1018.4
20200228191550 55 243 0.0 11.0 0.00 0.00 0.00 38 1018.7
20200228190050 55 294 1.0 12.0 0.00 0.00 0.00 38 1018.9
20200228184530 54 360 2.0 15.0 0.00 0.00 0.00 37 1018.9
20200228183103 54 277 0.0 14.0 0.00 0.00 0.00 39 1019.2
20200228181543 54 360 0.0 17.0 0.00 0.00 0.00 37 1019.7
20200228180031 54 360 0.0 12.0 0.00 0.00 0.00 38 1020.0
20200228174525 53 360 0.0 10.0 0.00 0.00 0.00 39 1020.3
20200228173018 52 360 1.0 17.0 0.00 0.00 0.00 39 1020.6
20200228171518 52 252 0.0 10.0 0.00 0.00 0.00 40 1021.0
20200228170012 52 267 0.0 12.0 0.00 0.00 0.00 39 1021.2
20200228164515 50 249 1.0 13.0 0.00 0.00 0.00 41 1021.4
20200228161717 50 360 1.0 10.0 0.00 0.00 0.00 42 1021.8
20200228160156 49 291 4.0 15.0 0.00 0.00 0.00 45 1022.0
20200228154654 50 224 0.0 11.0 0.00 0.00 0.00 45 1022.0
20200228153132 48 269 0.0 5.0 0.00 0.00 0.00 47 1022.2
20200228151619 47 360 0.0 4.0 0.00 0.00 0.00 49 1021.9
20200228150138 47 360 0.0 5.0 0.00 0.00 0.00 51 1022.2
20200228144550 44 360 0.0 0.0 0.00 0.00 0.00 57 1022.4
20200228143106 41 360 0.0 0.0 0.00 0.00 0.00 67 1022.2
20200228141541 38 360 0.0 0.0 0.00 0.00 0.00 72 1022.4